sensor_id;sensor_type;location;lat;lon;timestamp;pressure;altitude;pressure_sealevel;temperature;humidity
81181;BME280;70650;51.408;7.132;2023-09-19T00:00:42;99737.03;;;15.40;79.50
81181;BME280;70650;51.408;7.132;2023-09-19T00:03:09;99736.22;;;15.28;79.84
81181;BME280;70650;51.408;7.132;2023-09-19T00:05:37;99741.22;;;15.22;81.11
81181;BME280;70650;51.408;7.132;2023-09-19T00:08:09;99746.72;;;15.09;81.62
81181;BME280;70650;51.408;7.132;2023-09-19T00:10:36;99750.44;;;15.18;81.27
81181;BME280;70650;51.408;7.132;2023-09-19T00:13:04;99748.75;;;15.17;81.06
81181;BME280;70650;51.408;7.132;2023-09-19T00:15:31;99756.50;;;15.08;81.64
81181;BME280;70650;51.408;7.132;2023-09-19T00:18:03;99754.72;;;15.09;81.42
81181;BME280;70650;51.408;7.132;2023-09-19T00:20:32;99762.72;;;15.09;80.75
81181;BME280;70650;51.408;7.132;2023-09-19T00:23:01;99773.94;;;15.13;80.25
81181;BME280;70650;51.408;7.132;2023-09-19T00:25:35;99770.78;;;15.07;80.40
81181;BME280;70650;51.408;7.132;2023-09-19T00:28:01;99750.88;;;14.91;80.47
81181;BME280;70650;51.408;7.132;2023-09-19T00:30:26;99768.44;;;14.93;80.45
81181;BME280;70650;51.408;7.132;2023-09-19T00:32:53;99771.06;;;15.04;79.53
81181;BME280;70650;51.408;7.132;2023-09-19T00:35:22;99769.84;;;14.97;79.44
81181;BME280;70650;51.408;7.132;2023-09-19T00:37:51;99769.38;;;15.03;79.34
81181;BME280;70650;51.408;7.132;2023-09-19T00:40:17;99777.84;;;14.97;79.15
81181;BME280;70650;51.408;7.132;2023-09-19T00:42:43;99777.25;;;14.94;78.93
81181;BME280;70650;51.408;7.132;2023-09-19T00:45:10;99775.94;;;14.88;79.28
81181;BME280;70650;51.408;7.132;2023-09-19T00:47:42;99780.28;;;14.89;79.21
81181;BME280;70650;51.408;7.132;2023-09-19T00:50:11;99772.19;;;14.79;79.26
81181;BME280;70650;51.408;7.132;2023-09-19T00:52:40;99774.25;;;14.87;78.99
81181;BME280;70650;51.408;7.132;2023-09-19T00:55:08;99794.94;;;14.83;79.27
81181;BME280;70650;51.408;7.132;2023-09-19T00:57:37;99782.25;;;14.76;79.09
81181;BME280;70650;51.408;7.132;2023-09-19T01:00:04;99793.25;;;14.82;78.74
81181;BME280;70650;51.408;7.132;2023-09-19T01:02:34;99774.28;;;14.76;78.80
81181;BME280;70650;51.408;7.132;2023-09-19T01:05:00;99794.31;;;14.80;78.66
81181;BME280;70650;51.408;7.132;2023-09-19T01:07:29;99794.09;;;14.83;78.40
81181;BME280;70650;51.408;7.132;2023-09-19T01:09:57;99799.66;;;14.80;78.72
81181;BME280;70650;51.408;7.132;2023-09-19T01:15:26;99795.06;;;14.82;78.46
81181;BME280;70650;51.408;7.132;2023-09-19T01:18:03;99791.31;;;14.73;78.67
81181;BME280;70650;51.408;7.132;2023-09-19T01:24:15;99810.56;;;14.66;78.86
81181;BME280;70650;51.408;7.132;2023-09-19T01:31:19;99828.09;;;14.68;78.79
81181;BME280;70650;51.408;7.132;2023-09-19T01:33:57;99815.25;;;14.73;78.56
81181;BME280;70650;51.408;7.132;2023-09-19T01:36:34;99823.59;;;14.69;79.03
81181;BME280;70650;51.408;7.132;2023-09-19T01:39:07;99820.25;;;14.67;78.84
81181;BME280;70650;51.408;7.132;2023-09-19T01:47:12;99834.75;;;14.63;78.71
81181;BME280;70650;51.408;7.132;2023-09-19T01:49:50;99841.16;;;14.60;78.20
81181;BME280;70650;51.408;7.132;2023-09-19T01:52:30;99845.50;;;14.50;78.74
81181;BME280;70650;51.408;7.132;2023-09-19T01:55:08;99835.44;;;14.42;78.75
81181;BME280;70650;51.408;7.132;2023-09-19T01:57:42;99840.50;;;14.45;78.60
81181;BME280;70650;51.408;7.132;2023-09-19T02:00:10;99844.28;;;14.43;78.48
81181;BME280;70650;51.408;7.132;2023-09-19T02:02:43;99830.66;;;14.47;78.45
81181;BME280;70650;51.408;7.132;2023-09-19T02:05:09;99835.94;;;14.36;78.12
81181;BME280;70650;51.408;7.132;2023-09-19T02:07:35;99842.84;;;14.50;78.09
81181;BME280;70650;51.408;7.132;2023-09-19T02:10:04;99837.13;;;14.43;78.03
81181;BME280;70650;51.408;7.132;2023-09-19T02:12:31;99842.72;;;14.51;77.80
81181;BME280;70650;51.408;7.132;2023-09-19T02:14:58;99855.09;;;14.52;77.58
81181;BME280;70650;51.408;7.132;2023-09-19T02:17:25;99852.97;;;14.45;77.91
81181;BME280;70650;51.408;7.132;2023-09-19T02:19:54;99851.13;;;14.34;78.51
81181;BME280;70650;51.408;7.132;2023-09-19T02:22:23;99852.59;;;14.38;78.34
81181;BME280;70650;51.408;7.132;2023-09-19T02:24:50;99860.34;;;14.30;78.65
81181;BME280;70650;51.408;7.132;2023-09-19T02:27:17;99858.63;;;14.40;78.20
81181;BME280;70650;51.408;7.132;2023-09-19T02:29:43;99866.38;;;14.32;78.40
81181;BME280;70650;51.408;7.132;2023-09-19T02:32:09;99862.41;;;14.38;78.46
81181;BME280;70650;51.408;7.132;2023-09-19T02:34:37;99862.88;;;14.31;78.81
81181;BME280;70650;51.408;7.132;2023-09-19T02:37:04;99871.47;;;14.35;78.19
81181;BME280;70650;51.408;7.132;2023-09-19T02:39:32;99875.34;;;14.42;78.05
81181;BME280;70650;51.408;7.132;2023-09-19T02:41:57;99873.66;;;14.41;78.30
81181;BME280;70650;51.408;7.132;2023-09-19T02:44:23;99868.44;;;14.40;78.31
81181;BME280;70650;51.408;7.132;2023-09-19T02:46:49;99870.50;;;14.36;78.24
81181;BME280;70650;51.408;7.132;2023-09-19T02:49:14;99872.88;;;14.28;78.13
81181;BME280;70650;51.408;7.132;2023-09-19T02:51:40;99871.91;;;14.29;78.36
81181;BME280;70650;51.408;7.132;2023-09-19T02:54:07;99876.78;;;14.24;78.20
81181;BME280;70650;51.408;7.132;2023-09-19T02:56:34;99872.88;;;14.28;78.74
81181;BME280;70650;51.408;7.132;2023-09-19T02:59:01;99888.34;;;14.23;78.01
81181;BME280;70650;51.408;7.132;2023-09-19T03:01:27;99895.41;;;14.35;76.89
81181;BME280;70650;51.408;7.132;2023-09-19T03:03:54;99899.47;;;14.28;76.68
81181;BME280;70650;51.408;7.132;2023-09-19T03:06:21;99885.09;;;14.19;76.95
81181;BME280;70650;51.408;7.132;2023-09-19T03:08:47;99879.03;;;14.28;75.99
81181;BME280;70650;51.408;7.132;2023-09-19T03:11:14;99887.50;;;14.22;75.53
81181;BME280;70650;51.408;7.132;2023-09-19T03:13:41;99896.31;;;14.23;74.77
81181;BME280;70650;51.408;7.132;2023-09-19T03:16:07;99908.69;;;14.24;74.13
81181;BME280;70650;51.408;7.132;2023-09-19T03:18:36;99899.44;;;14.17;74.45
81181;BME280;70650;51.408;7.132;2023-09-19T03:21:02;99902.19;;;14.04;74.15
81181;BME280;70650;51.408;7.132;2023-09-19T03:23:29;99897.88;;;14.14;73.66
81181;BME280;70650;51.408;7.132;2023-09-19T03:25:57;99902.81;;;14.08;73.83
81181;BME280;70650;51.408;7.132;2023-09-19T03:28:24;99899.44;;;14.17;73.52
81181;BME280;70650;51.408;7.132;2023-09-19T03:31:04;99892.19;;;14.08;73.52
81181;BME280;70650;51.408;7.132;2023-09-19T03:33:30;99880.84;;;14.17;73.21
81181;BME280;70650;51.408;7.132;2023-09-19T03:35:59;99894.25;;;14.15;73.57
81181;BME280;70650;51.408;7.132;2023-09-19T03:38:26;99902.34;;;14.14;73.47
81181;BME280;70650;51.408;7.132;2023-09-19T03:40:51;99899.50;;;13.93;73.89
81181;BME280;70650;51.408;7.132;2023-09-19T03:43:18;99901.09;;;14.06;73.14
81181;BME280;70650;51.408;7.132;2023-09-19T03:45:44;99909.53;;;14.00;73.41
81181;BME280;70650;51.408;7.132;2023-09-19T03:48:10;99901.94;;;13.96;73.63
81181;BME280;70650;51.408;7.132;2023-09-19T03:50:36;99904.19;;;13.89;74.14
81181;BME280;70650;51.408;7.132;2023-09-19T03:53:03;99909.78;;;13.97;73.76
81181;BME280;70650;51.408;7.132;2023-09-19T03:55:29;99901.53;;;13.89;73.86
81181;BME280;70650;51.408;7.132;2023-09-19T03:57:55;99901.31;;;13.92;74.09
81181;BME280;70650;51.408;7.132;2023-09-19T04:00:21;99899.63;;;13.91;74.22
81181;BME280;70650;51.408;7.132;2023-09-19T04:02:48;99899.38;;;13.94;73.70
81181;BME280;70650;51.408;7.132;2023-09-19T04:05:14;99894.53;;;13.88;74.35
81181;BME280;70650;51.408;7.132;2023-09-19T04:07:41;99904.66;;;13.83;74.68
81181;BME280;70650;51.408;7.132;2023-09-19T04:10:07;99908.06;;;13.85;74.32
81181;BME280;70650;51.408;7.132;2023-09-19T04:12:35;99902.63;;;13.87;74.38
81181;BME280;70650;51.408;7.132;2023-09-19T04:15:00;99893.81;;;13.86;74.58
81181;BME280;70650;51.408;7.132;2023-09-19T04:17:25;99903.91;;;13.81;74.91
81181;BME280;70650;51.408;7.132;2023-09-19T04:19:51;99893.28;;;13.81;74.81
81181;BME280;70650;51.408;7.132;2023-09-19T04:22:16;99907.50;;;13.69;75.62
81181;BME280;70650;51.408;7.132;2023-09-19T04:24:41;99898.69;;;13.68;75.61
81181;BME280;70650;51.408;7.132;2023-09-19T04:27:08;99895.31;;;13.77;74.73
81181;BME280;70650;51.408;7.132;2023-09-19T04:29:35;99911.91;;;13.81;75.15
81181;BME280;70650;51.408;7.132;2023-09-19T04:32:01;99921.28;;;13.74;75.29
81181;BME280;70650;51.408;7.132;2023-09-19T04:34:31;99917.16;;;13.70;75.46
81181;BME280;70650;51.408;7.132;2023-09-19T04:36:57;99915.66;;;13.78;75.46
81181;BME280;70650;51.408;7.132;2023-09-19T04:39:24;99910.81;;;13.84;74.78
81181;BME280;70650;51.408;7.132;2023-09-19T04:41:51;99910.41;;;13.77;75.31
81181;BME280;70650;51.408;7.132;2023-09-19T04:44:16;99904.66;;;13.83;75.48
81181;BME280;70650;51.408;7.132;2023-09-19T04:46:42;99906.31;;;13.73;75.59
81181;BME280;70650;51.408;7.132;2023-09-19T04:49:08;99919.47;;;13.74;75.86
81181;BME280;70650;51.408;7.132;2023-09-19T04:51:34;99917.53;;;13.76;76.01
81181;BME280;70650;51.408;7.132;2023-09-19T04:54:01;99915.13;;;13.73;76.28
81181;BME280;70650;51.408;7.132;2023-09-19T04:56:29;99907.94;;;13.63;76.75
81181;BME280;70650;51.408;7.132;2023-09-19T04:58:55;99914.50;;;13.70;76.04
81181;BME280;70650;51.408;7.132;2023-09-19T05:01:22;99922.25;;;13.73;76.22
81181;BME280;70650;51.408;7.132;2023-09-19T05:03:48;99909.41;;;13.67;76.59
81181;BME280;70650;51.408;7.132;2023-09-19T05:06:20;99925.13;;;13.70;76.63
81181;BME280;70650;51.408;7.132;2023-09-19T05:08:49;99924.84;;;13.62;76.58
81181;BME280;70650;51.408;7.132;2023-09-19T05:11:21;99922.94;;;13.64;76.83
81181;BME280;70650;51.408;7.132;2023-09-19T05:13:48;99933.66;;;13.62;76.57
81181;BME280;70650;51.408;7.132;2023-09-19T05:16:15;99941.69;;;13.73;76.18
81181;BME280;70650;51.408;7.132;2023-09-19T05:18:41;99943.44;;;13.62;77.08
81181;BME280;70650;51.408;7.132;2023-09-19T05:21:07;99942.47;;;13.63;75.92
81181;BME280;70650;51.408;7.132;2023-09-19T05:23:33;99960.97;;;13.64;76.48
81181;BME280;70650;51.408;7.132;2023-09-19T05:25:58;99949.59;;;13.62;76.26
81181;BME280;70650;51.408;7.132;2023-09-19T05:28:25;99969.19;;;13.72;76.04
81181;BME280;70650;51.408;7.132;2023-09-19T05:30:52;99979.94;;;13.71;75.93
81181;BME280;70650;51.408;7.132;2023-09-19T05:33:18;99996.28;;;13.77;75.86
81181;BME280;70650;51.408;7.132;2023-09-19T05:35:43;99987.38;;;13.78;75.56
81181;BME280;70650;51.408;7.132;2023-09-19T05:38:09;99982.91;;;13.79;75.42
81181;BME280;70650;51.408;7.132;2023-09-19T05:40:35;99981.72;;;13.83;75.56
81181;BME280;70650;51.408;7.132;2023-09-19T05:43:01;99976.44;;;13.70;75.96
81181;BME280;70650;51.408;7.132;2023-09-19T05:45:27;99986.19;;;13.83;75.79
81181;BME280;70650;51.408;7.132;2023-09-19T05:47:53;99988.22;;;13.79;75.39
81181;BME280;70650;51.408;7.132;2023-09-19T05:50:29;99989.91;;;13.80;75.73
81181;BME280;70650;51.408;7.132;2023-09-19T05:52:54;99992.41;;;13.94;75.36
81181;BME280;70650;51.408;7.132;2023-09-19T05:55:21;99994.09;;;13.95;75.34
81181;BME280;70650;51.408;7.132;2023-09-19T05:57:52;99999.53;;;13.94;75.22
81181;BME280;70650;51.408;7.132;2023-09-19T06:00:19;100007.63;;;13.92;75.22
81181;BME280;70650;51.408;7.132;2023-09-19T06:02:52;100014.13;;;13.88;75.36
81181;BME280;70650;51.408;7.132;2023-09-19T06:05:18;100024.09;;;13.97;75.35
81181;BME280;70650;51.408;7.132;2023-09-19T06:07:43;100016.03;;;14.10;74.24
81181;BME280;70650;51.408;7.132;2023-09-19T06:10:09;100017.19;;;14.19;74.13
81181;BME280;70650;51.408;7.132;2023-09-19T06:12:43;100014.34;;;14.09;74.34
81181;BME280;70650;51.408;7.132;2023-09-19T06:15:11;100009.16;;;14.08;74.33
81181;BME280;70650;51.408;7.132;2023-09-19T06:17:52;100015.25;;;14.21;74.05
81181;BME280;70650;51.408;7.132;2023-09-19T06:20:25;100019.22;;;14.15;74.33
81181;BME280;70650;51.408;7.132;2023-09-19T06:22:53;100014.41;;;14.20;74.22
81181;BME280;70650;51.408;7.132;2023-09-19T06:25:20;100008.50;;;14.28;74.34
81181;BME280;70650;51.408;7.132;2023-09-19T06:27:51;100013.72;;;14.29;73.79
81181;BME280;70650;51.408;7.132;2023-09-19T06:30:23;100011.28;;;14.26;73.96
81181;BME280;70650;51.408;7.132;2023-09-19T06:32:49;100008.16;;;14.32;73.16
81181;BME280;70650;51.408;7.132;2023-09-19T06:35:16;100023.78;;;14.37;73.37
81181;BME280;70650;51.408;7.132;2023-09-19T06:37:54;100029.28;;;14.23;73.70
81181;BME280;70650;51.408;7.132;2023-09-19T06:40:29;100022.31;;;14.33;74.04
81181;BME280;70650;51.408;7.132;2023-09-19T06:42:56;100022.34;;;14.44;74.04
81181;BME280;70650;51.408;7.132;2023-09-19T06:45:21;100010.16;;;14.42;74.07
81181;BME280;70650;51.408;7.132;2023-09-19T06:47:50;100007.84;;;14.37;74.45
81181;BME280;70650;51.408;7.132;2023-09-19T06:50:16;100008.88;;;14.47;73.54
81181;BME280;70650;51.408;7.132;2023-09-19T06:52:44;100012.91;;;14.40;73.98
81181;BME280;70650;51.408;7.132;2023-09-19T06:55:10;100007.56;;;14.53;73.91
81181;BME280;70650;51.408;7.132;2023-09-19T06:57:38;100013.59;;;14.55;73.26
81181;BME280;70650;51.408;7.132;2023-09-19T07:00:06;100023.88;;;14.48;73.75
81181;BME280;70650;51.408;7.132;2023-09-19T07:02:41;100024.00;;;14.47;73.63
81181;BME280;70650;51.408;7.132;2023-09-19T07:05:07;100022.22;;;14.58;73.53
81181;BME280;70650;51.408;7.132;2023-09-19T07:07:39;100029.34;;;14.58;74.48
81181;BME280;70650;51.408;7.132;2023-09-19T07:10:06;100022.97;;;14.72;73.19
81181;BME280;70650;51.408;7.132;2023-09-19T07:12:35;100032.00;;;14.58;73.88
81181;BME280;70650;51.408;7.132;2023-09-19T07:15:00;100024.41;;;14.65;73.43
81181;BME280;70650;51.408;7.132;2023-09-19T07:17:26;100026.97;;;14.77;73.51
81181;BME280;70650;51.408;7.132;2023-09-19T07:19:53;100034.28;;;14.63;74.02
81181;BME280;70650;51.408;7.132;2023-09-19T07:22:18;100037.38;;;14.69;73.55
81181;BME280;70650;51.408;7.132;2023-09-19T07:24:44;100050.78;;;14.79;73.57
81181;BME280;70650;51.408;7.132;2023-09-19T07:27:09;100044.88;;;14.75;73.66
81181;BME280;70650;51.408;7.132;2023-09-19T07:29:36;100054.81;;;14.84;73.61
81181;BME280;70650;51.408;7.132;2023-09-19T07:32:03;100055.03;;;14.70;74.19
81181;BME280;70650;51.408;7.132;2023-09-19T07:34:29;100044.47;;;14.69;73.53
81181;BME280;70650;51.408;7.132;2023-09-19T07:36:54;100050.28;;;14.74;74.13
81181;BME280;70650;51.408;7.132;2023-09-19T07:39:19;100034.84;;;14.90;73.46
81181;BME280;70650;51.408;7.132;2023-09-19T07:41:45;100037.38;;;14.92;73.88
81181;BME280;70650;51.408;7.132;2023-09-19T07:44:12;100045.75;;;14.87;73.16
81181;BME280;70650;51.408;7.132;2023-09-19T07:46:39;100040.66;;;14.95;73.11
81181;BME280;70650;51.408;7.132;2023-09-19T07:49:06;100047.72;;;15.07;72.88
81181;BME280;70650;51.408;7.132;2023-09-19T07:51:32;100053.66;;;15.11;73.02
81181;BME280;70650;51.408;7.132;2023-09-19T07:53:58;100047.34;;;15.12;72.65
81181;BME280;70650;51.408;7.132;2023-09-19T07:56:24;100044.56;;;15.25;73.16
81181;BME280;70650;51.408;7.132;2023-09-19T07:58:51;100046.75;;;15.20;73.24
81181;BME280;70650;51.408;7.132;2023-09-19T08:01:17;100051.38;;;15.29;72.30
81181;BME280;70650;51.408;7.132;2023-09-19T08:03:42;100062.88;;;15.29;72.79
81181;BME280;70650;51.408;7.132;2023-09-19T08:06:09;100049.31;;;15.21;73.11
81181;BME280;70650;51.408;7.132;2023-09-19T08:08:36;100068.69;;;15.23;72.50
81181;BME280;70650;51.408;7.132;2023-09-19T08:11:05;100059.34;;;15.18;73.28
81181;BME280;70650;51.408;7.132;2023-09-19T08:13:38;100084.00;;;14.97;73.33
81181;BME280;70650;51.408;7.132;2023-09-19T08:16:08;100069.16;;;15.17;73.05
81181;BME280;70650;51.408;7.132;2023-09-19T08:18:34;100068.44;;;15.15;72.85
81181;BME280;70650;51.408;7.132;2023-09-19T08:20:59;100086.31;;;15.13;72.28
81181;BME280;70650;51.408;7.132;2023-09-19T08:23:26;100078.16;;;15.38;72.57
81181;BME280;70650;51.408;7.132;2023-09-19T08:25:56;100080.91;;;15.37;72.70
81181;BME280;70650;51.408;7.132;2023-09-19T08:28:21;100081.16;;;15.34;72.75
81181;BME280;70650;51.408;7.132;2023-09-19T08:30:50;100084.53;;;15.36;73.13
81181;BME280;70650;51.408;7.132;2023-09-19T08:33:16;100085.66;;;15.56;71.95
81181;BME280;70650;51.408;7.132;2023-09-19T08:35:42;100091.16;;;15.66;71.62
81181;BME280;70650;51.408;7.132;2023-09-19T08:38:10;100084.81;;;15.55;72.08
81181;BME280;70650;51.408;7.132;2023-09-19T08:40:39;100089.88;;;15.58;71.61
81181;BME280;70650;51.408;7.132;2023-09-19T08:43:08;100091.84;;;15.56;72.33
81181;BME280;70650;51.408;7.132;2023-09-19T08:45:35;100088.59;;;15.64;71.21
81181;BME280;70650;51.408;7.132;2023-09-19T08:48:27;100085.03;;;15.52;71.35
81181;BME280;70650;51.408;7.132;2023-09-19T08:51:03;100089.69;;;15.84;70.75
81181;BME280;70650;51.408;7.132;2023-09-19T08:56:17;100084.53;;;16.03;69.83
81181;BME280;70650;51.408;7.132;2023-09-19T08:58:57;100096.03;;;16.15;69.58
81181;BME280;70650;51.408;7.132;2023-09-19T09:01:29;100088.13;;;16.25;69.70
81181;BME280;70650;51.408;7.132;2023-09-19T09:03:55;100080.88;;;16.15;69.14
81181;BME280;70650;51.408;7.132;2023-09-19T09:06:22;100083.53;;;16.15;68.87
81181;BME280;70650;51.408;7.132;2023-09-19T09:08:50;100098.47;;;16.18;68.66
81181;BME280;70650;51.408;7.132;2023-09-19T09:11:16;100080.31;;;16.01;68.50
81181;BME280;70650;51.408;7.132;2023-09-19T09:13:46;100100.50;;;16.26;68.15
81181;BME280;70650;51.408;7.132;2023-09-19T09:16:12;100087.31;;;16.13;68.09
81181;BME280;70650;51.408;7.132;2023-09-19T09:18:39;100082.81;;;16.25;67.23
81181;BME280;70650;51.408;7.132;2023-09-19T09:21:05;100095.41;;;16.34;67.38
81181;BME280;70650;51.408;7.132;2023-09-19T09:23:30;100074.41;;;16.61;67.32
81181;BME280;70650;51.408;7.132;2023-09-19T09:25:58;100087.31;;;16.88;66.51
81181;BME280;70650;51.408;7.132;2023-09-19T09:28:36;100083.09;;;16.86;64.82
81181;BME280;70650;51.408;7.132;2023-09-19T09:31:22;100073.50;;;17.04;65.57
81181;BME280;70650;51.408;7.132;2023-09-19T09:33:55;100076.56;;;17.00;65.35
81181;BME280;70650;51.408;7.132;2023-09-19T09:36:38;100084.88;;;17.06;65.35
81181;BME280;70650;51.408;7.132;2023-09-19T09:39:04;100078.72;;;17.06;64.69
81181;BME280;70650;51.408;7.132;2023-09-19T09:41:42;100075.03;;;17.28;64.39
81181;BME280;70650;51.408;7.132;2023-09-19T09:44:18;100079.72;;;17.35;64.11
81181;BME280;70650;51.408;7.132;2023-09-19T09:46:48;100067.31;;;17.25;63.40
81181;BME280;70650;51.408;7.132;2023-09-19T09:49:24;100076.63;;;17.30;63.64
81181;BME280;70650;51.408;7.132;2023-09-19T09:52:07;100083.91;;;17.07;63.98
81181;BME280;70650;51.408;7.132;2023-09-19T09:55:05;100071.75;;;17.14;64.39
81181;BME280;70650;51.408;7.132;2023-09-19T09:57:32;100069.31;;;17.32;62.48
81181;BME280;70650;51.408;7.132;2023-09-19T09:59:59;100046.63;;;17.27;62.26
81181;BME280;70650;51.408;7.132;2023-09-19T10:02:47;100071.13;;;17.32;63.41
81181;BME280;70650;51.408;7.132;2023-09-19T10:05:17;100076.81;;;17.17;63.36
81181;BME280;70650;51.408;7.132;2023-09-19T10:07:47;100068.94;;;17.16;63.65
81181;BME280;70650;51.408;7.132;2023-09-19T10:10:37;100079.16;;;17.32;62.68
81181;BME280;70650;51.408;7.132;2023-09-19T10:13:10;100071.00;;;17.33;62.79
81181;BME280;70650;51.408;7.132;2023-09-19T10:15:42;100073.16;;;17.18;62.72
81181;BME280;70650;51.408;7.132;2023-09-19T10:18:11;100057.84;;;17.51;62.45
81181;BME280;70650;51.408;7.132;2023-09-19T10:20:42;100059.84;;;17.89;62.22
81181;BME280;70650;51.408;7.132;2023-09-19T10:23:12;100056.91;;;18.02;60.77
81181;BME280;70650;51.408;7.132;2023-09-19T10:25:41;100066.22;;;18.08;60.22
81181;BME280;70650;51.408;7.132;2023-09-19T10:28:08;100060.34;;;18.23;60.62
81181;BME280;70650;51.408;7.132;2023-09-19T10:30:40;100044.88;;;18.56;59.26
81181;BME280;70650;51.408;7.132;2023-09-19T10:33:09;100047.25;;;18.59;59.03
81181;BME280;70650;51.408;7.132;2023-09-19T10:35:38;100044.28;;;18.91;58.00
81181;BME280;70650;51.408;7.132;2023-09-19T10:38:06;100036.69;;;18.77;56.55
81181;BME280;70650;51.408;7.132;2023-09-19T10:40:33;100047.81;;;18.63;56.23
81181;BME280;70650;51.408;7.132;2023-09-19T10:43:03;100045.97;;;18.83;57.58
81181;BME280;70650;51.408;7.132;2023-09-19T10:45:33;100040.88;;;18.99;57.17
81181;BME280;70650;51.408;7.132;2023-09-19T10:48:02;100056.00;;;18.90;56.35
81181;BME280;70650;51.408;7.132;2023-09-19T10:50:46;100055.41;;;18.48;58.04
81181;BME280;70650;51.408;7.132;2023-09-19T10:53:15;100045.56;;;18.29;57.78
81181;BME280;70650;51.408;7.132;2023-09-19T10:55:51;100050.91;;;19.06;55.86
81181;BME280;70650;51.408;7.132;2023-09-19T10:58:30;100045.38;;;19.18;54.90
81181;BME280;70650;51.408;7.132;2023-09-19T11:01:01;100048.25;;;18.87;55.75
81181;BME280;70650;51.408;7.132;2023-09-19T11:03:38;100036.88;;;19.22;54.52
81181;BME280;70650;51.408;7.132;2023-09-19T11:08:54;100034.09;;;19.14;55.65
81181;BME280;70650;51.408;7.132;2023-09-19T11:11:39;100039.00;;;19.56;55.64
81181;BME280;70650;51.408;7.132;2023-09-19T11:30:45;100049.88;;;19.92;52.97
81181;BME280;70650;51.408;7.132;2023-09-19T11:35:59;100045.22;;;20.29;51.23
81181;BME280;70650;51.408;7.132;2023-09-19T11:49:17;100038.16;;;19.65;50.89
81181;BME280;70650;51.408;7.132;2023-09-19T11:51:50;100032.00;;;19.08;52.96
81181;BME280;70650;51.408;7.132;2023-09-19T11:54:18;100040.25;;;19.71;52.09
81181;BME280;70650;51.408;7.132;2023-09-19T11:56:49;100039.81;;;20.21;51.83
81181;BME280;70650;51.408;7.132;2023-09-19T11:59:21;100036.88;;;19.97;52.28
81181;BME280;70650;51.408;7.132;2023-09-19T12:01:52;100043.66;;;20.98;49.92
81181;BME280;70650;51.408;7.132;2023-09-19T12:04:39;100038.50;;;20.43;50.01
81181;BME280;70650;51.408;7.132;2023-09-19T12:07:07;100039.38;;;20.61;49.41
81181;BME280;70650;51.408;7.132;2023-09-19T12:09:40;100040.88;;;20.28;49.93
81181;BME280;70650;51.408;7.132;2023-09-19T12:12:10;100031.34;;;20.34;50.31
81181;BME280;70650;51.408;7.132;2023-09-19T12:14:40;100031.66;;;20.13;49.30
81181;BME280;70650;51.408;7.132;2023-09-19T12:17:07;100020.03;;;19.77;50.33
81181;BME280;70650;51.408;7.132;2023-09-19T12:19:33;100011.06;;;20.49;48.84
81181;BME280;70650;51.408;7.132;2023-09-19T12:22:02;100013.31;;;20.80;48.82
81181;BME280;70650;51.408;7.132;2023-09-19T12:24:31;100012.47;;;20.79;49.96
81181;BME280;70650;51.408;7.132;2023-09-19T12:27:05;100005.31;;;20.88;47.48
81181;BME280;70650;51.408;7.132;2023-09-19T12:29:32;99992.53;;;20.82;47.77
81181;BME280;70650;51.408;7.132;2023-09-19T12:32:07;100005.56;;;21.29;47.58
81181;BME280;70650;51.408;7.132;2023-09-19T12:34:33;99999.81;;;21.24;47.75
81181;BME280;70650;51.408;7.132;2023-09-19T12:37:16;99990.63;;;21.68;45.27
81181;BME280;70650;51.408;7.132;2023-09-19T12:39:51;99995.34;;;21.06;46.55
81181;BME280;70650;51.408;7.132;2023-09-19T12:42:23;99994.44;;;21.24;45.99
81181;BME280;70650;51.408;7.132;2023-09-19T12:44:51;99999.28;;;21.20;45.55
81181;BME280;70650;51.408;7.132;2023-09-19T12:47:22;99988.06;;;21.59;43.92
81181;BME280;70650;51.408;7.132;2023-09-19T12:50:24;99972.53;;;21.10;44.37
81181;BME280;70650;51.408;7.132;2023-09-19T12:52:55;99966.88;;;20.26;46.98
81181;BME280;70650;51.408;7.132;2023-09-19T12:55:29;99977.34;;;21.33;45.38
81181;BME280;70650;51.408;7.132;2023-09-19T12:58:11;99979.59;;;20.59;45.03
81181;BME280;70650;51.408;7.132;2023-09-19T13:00:39;99974.06;;;21.47;44.21
81181;BME280;70650;51.408;7.132;2023-09-19T13:06:00;99986.91;;;22.28;42.06
81181;BME280;70650;51.408;7.132;2023-09-19T13:08:29;99977.16;;;22.19;42.30
81181;BME280;70650;51.408;7.132;2023-09-19T13:13:32;99970.13;;;21.76;43.01
81181;BME280;70650;51.408;7.132;2023-09-19T13:15:59;99960.19;;;21.76;44.04
81181;BME280;70650;51.408;7.132;2023-09-19T13:18:26;99979.47;;;20.69;45.30
81181;BME280;70650;51.408;7.132;2023-09-19T13:21:14;99980.88;;;20.99;44.89
81181;BME280;70650;51.408;7.132;2023-09-19T13:23:54;99969.34;;;21.41;43.60
81181;BME280;70650;51.408;7.132;2023-09-19T13:26:24;100000.91;;;20.87;44.74
81181;BME280;70650;51.408;7.132;2023-09-19T13:28:50;99996.25;;;20.89;45.90
81181;BME280;70650;51.408;7.132;2023-09-19T13:31:18;99976.69;;;21.31;45.55
81181;BME280;70650;51.408;7.132;2023-09-19T13:33:45;99985.72;;;21.56;45.29
81181;BME280;70650;51.408;7.132;2023-09-19T13:36:11;99990.31;;;21.29;45.83
81181;BME280;70650;51.408;7.132;2023-09-19T13:38:38;99992.69;;;20.62;46.34
81181;BME280;70650;51.408;7.132;2023-09-19T13:41:04;99975.44;;;20.29;47.42
81181;BME280;70650;51.408;7.132;2023-09-19T13:43:30;99976.66;;;20.71;46.74
81181;BME280;70650;51.408;7.132;2023-09-19T13:45:56;99993.09;;;20.32;48.38
81181;BME280;70650;51.408;7.132;2023-09-19T13:48:22;99977.88;;;20.76;46.59
81181;BME280;70650;51.408;7.132;2023-09-19T13:50:49;99975.75;;;20.44;47.73
81181;BME280;70650;51.408;7.132;2023-09-19T13:53:15;99978.88;;;20.39;47.71
81181;BME280;70650;51.408;7.132;2023-09-19T13:55:42;99972.84;;;20.20;48.57
81181;BME280;70650;51.408;7.132;2023-09-19T13:58:08;99990.41;;;20.14;48.72
81181;BME280;70650;51.408;7.132;2023-09-19T14:00:36;99982.66;;;19.66;49.10
81181;BME280;70650;51.408;7.132;2023-09-19T14:03:01;99970.00;;;19.58;49.63